createdAt,value
2017-03-30T00:00:35.985Z,1.50
2017-03-30T00:01:35.085Z,1.70
2017-03-30T00:02:33.937Z,1.90
2017-03-30T00:03:32.789Z,2.15
2017-03-30T00:04:31.492Z,2.05
2017-03-30T00:05:30.364Z,2.48
2017-03-30T00:06:29.172Z,1.92
2017-03-30T00:07:28.377Z,1.62
2017-03-30T00:08:27.216Z,1.48
2017-03-30T00:09:26.085Z,1.60
2017-03-30T00:10:24.917Z,1.83
2017-03-30T00:11:23.683Z,1.78
2017-03-30T00:12:22.475Z,1.60
2017-03-30T00:13:21.236Z,1.63
2017-03-30T00:14:20.080Z,1.75
2017-03-30T00:15:18.905Z,1.55
2017-03-30T00:16:17.729Z,1.62
2017-03-30T00:17:16.605Z,1.43
2017-03-30T00:18:15.441Z,2.17
2017-03-30T00:19:14.620Z,1.98
2017-03-30T00:20:13.609Z,1.87
2017-03-30T00:21:12.432Z,1.53
2017-03-30T00:22:10.845Z,1.60
2017-03-30T00:23:09.695Z,1.62
2017-03-30T00:24:08.535Z,1.90
2017-03-30T00:25:07.699Z,1.60
2017-03-30T00:26:06.525Z,1.55
2017-03-30T00:27:05.351Z,1.85
2017-03-30T00:28:04.144Z,1.87
2017-03-30T00:29:02.977Z,1.95
2017-03-30T00:30:01.802Z,1.50
2017-03-30T00:31:00.506Z,1.45
2017-03-30T00:31:59.340Z,1.77
2017-03-30T00:32:58.266Z,1.73
2017-03-30T00:33:57.068Z,1.77
2017-03-30T00:34:55.877Z,1.52
2017-03-30T00:35:54.689Z,1.85
2017-03-30T00:36:53.956Z,1.78
2017-03-30T00:37:52.725Z,1.73
2017-03-30T00:38:51.528Z,1.83
2017-03-30T00:39:50.335Z,1.62
2017-03-30T00:40:48.770Z,1.78
2017-03-30T00:41:47.148Z,1.90
2017-03-30T00:42:46.220Z,1.68
2017-03-30T00:43:45.020Z,1.53
2017-03-30T00:44:43.865Z,1.77
2017-03-30T00:45:42.712Z,1.83
2017-03-30T00:46:41.825Z,1.87
2017-03-30T00:47:40.625Z,1.68
2017-03-30T00:48:39.713Z,1.82
2017-03-30T00:49:38.537Z,1.72
2017-03-30T00:50:37.353Z,2.42
2017-03-30T00:51:36.270Z,1.53
2017-03-30T00:52:35.054Z,2.13
2017-03-30T00:53:33.886Z,2.00
2017-03-30T00:54:32.672Z,1.90
2017-03-30T00:55:31.499Z,1.90
2017-03-30T00:56:30.308Z,1.92
2017-03-30T00:57:29.131Z,1.55
2017-03-30T00:58:27.947Z,1.80
2017-03-30T00:59:26.773Z,1.92
2017-03-30T01:00:25.539Z,1.83
2017-03-30T01:01:24.401Z,2.03
2017-03-30T01:02:23.280Z,1.83
2017-03-30T01:03:21.752Z,1.90
2017-03-30T01:04:20.586Z,1.73
2017-03-30T01:05:19.424Z,2.13
2017-03-30T01:06:18.491Z,1.78
2017-03-30T01:07:17.297Z,1.65
2017-03-30T01:08:16.069Z,1.82
2017-03-30T01:09:15.267Z,1.82
2017-03-30T01:10:14.113Z,2.07
2017-03-30T01:11:13.056Z,1.57
2017-03-30T01:12:11.897Z,1.90
2017-03-30T01:13:10.705Z,2.20
2017-03-30T01:14:09.533Z,2.07
2017-03-30T01:15:07.952Z,1.75
2017-03-30T01:16:06.800Z,1.88
2017-03-30T01:17:05.672Z,1.85
2017-03-30T01:18:04.773Z,2.28
2017-03-30T01:19:03.582Z,2.27
2017-03-30T01:20:02.032Z,1.97
2017-03-30T01:21:00.456Z,2.48
2017-03-30T01:21:58.880Z,1.47
2017-03-30T01:22:57.689Z,1.95
2017-03-30T01:23:57.175Z,1.73
2017-03-30T01:24:55.956Z,1.90
2017-03-30T01:25:54.797Z,2.12
2017-03-30T01:26:53.673Z,2.15
2017-03-30T01:27:52.453Z,1.90
2017-03-30T01:28:50.870Z,2.30
2017-03-30T01:29:49.979Z,2.08
2017-03-30T01:30:48.785Z,2.85
2017-03-30T01:31:47.578Z,1.75
2017-03-30T01:32:46.385Z,2.18
2017-03-30T01:33:45.259Z,2.48
2017-03-30T01:34:44.073Z,2.05
2017-03-30T01:35:43.189Z,2.50
2017-03-30T01:36:42.005Z,1.93
2017-03-30T01:37:40.828Z,1.75
2017-03-30T01:38:39.238Z,2.03
2017-03-30T01:39:37.641Z,1.72
2017-03-30T01:40:36.456Z,2.07
2017-03-30T01:41:35.654Z,2.10
2017-03-30T01:42:34.468Z,2.25
2017-03-30T01:43:32.865Z,2.28
2017-03-30T01:44:31.694Z,2.40
2017-03-30T01:45:30.519Z,2.12
2017-03-30T01:46:29.322Z,2.30
2017-03-30T01:47:28.417Z,2.20
2017-03-30T01:48:27.254Z,2.40
2017-03-30T01:49:26.095Z,2.15
2017-03-30T01:50:25.001Z,1.98
2017-03-30T01:51:23.445Z,2.28
2017-03-30T01:52:22.265Z,2.28
2017-03-30T01:53:21.501Z,2.05
2017-03-30T01:54:20.337Z,2.47
2017-03-30T01:55:18.880Z,2.37
2017-03-30T01:56:17.757Z,2.50
2017-03-30T01:57:16.649Z,2.45
2017-03-30T01:58:15.656Z,2.25
2017-03-30T01:59:14.331Z,2.50
2017-03-30T02:00:12.825Z,1.72
2017-03-30T02:01:11.979Z,2.20
2017-03-30T02:02:10.789Z,2.30
2017-03-30T02:03:09.597Z,2.18
2017-03-30T02:04:08.445Z,1.97
2017-03-30T02:05:07.649Z,2.52
2017-03-30T02:06:06.104Z,2.58
2017-03-30T02:07:04.941Z,2.10
2017-03-30T02:08:03.808Z,2.72
2017-03-30T02:09:02.336Z,2.47
2017-03-30T02:10:01.125Z,2.45
2017-03-30T02:10:59.836Z,2.50
2017-03-30T02:11:58.624Z,3.05
2017-03-30T02:12:57.024Z,3.33
2017-03-30T02:13:55.836Z,2.55
2017-03-30T02:14:54.661Z,2.25
2017-03-30T02:15:53.460Z,2.38
2017-03-30T02:16:52.565Z,2.45
2017-03-30T02:17:51.342Z,2.92
2017-03-30T02:18:50.192Z,2.60
2017-03-30T02:19:48.993Z,2.90
2017-03-30T02:20:47.800Z,2.95
2017-03-30T02:21:46.579Z,2.23
2017-03-30T02:22:45.756Z,3.60
2017-03-30T02:23:44.151Z,2.80
2017-03-30T02:24:42.945Z,2.68
2017-03-30T02:25:41.753Z,2.68
2017-03-30T02:26:40.560Z,2.53
2017-03-30T02:27:39.376Z,2.90
2017-03-30T02:28:38.593Z,2.58
2017-03-30T02:29:37.004Z,3.15
2017-03-30T02:30:35.872Z,2.78
2017-03-30T02:31:34.739Z,2.77
2017-03-30T02:32:33.546Z,2.40
2017-03-30T02:33:31.943Z,2.27
2017-03-30T02:34:31.088Z,2.42
2017-03-30T02:35:29.536Z,2.58
2017-03-30T02:36:28.343Z,2.48
2017-03-30T02:37:27.164Z,2.60
2017-03-30T02:38:25.974Z,2.25
2017-03-30T02:39:24.778Z,2.97
2017-03-30T02:40:23.854Z,2.95
2017-03-30T02:41:30.509Z,2.62
2017-03-30T07:20:30.068Z,5.50
2017-03-30T07:21:28.862Z,5.08
2017-03-30T07:22:27.317Z,5.92
2017-03-30T07:23:26.146Z,5.88
2017-03-30T07:24:24.936Z,4.65
2017-03-30T07:25:23.366Z,5.37
2017-03-30T07:26:22.489Z,5.12
2017-03-30T07:27:21.311Z,5.27
2017-03-30T07:28:20.153Z,4.92
2017-03-30T07:29:19.000Z,4.55
2017-03-30T07:30:17.869Z,4.62
2017-03-30T07:31:17.137Z,4.42
2017-03-30T07:32:16.309Z,4.77
2017-03-30T07:33:15.154Z,4.75
2017-03-30T07:34:13.945Z,4.60
2017-03-30T07:35:12.824Z,3.98
2017-03-30T07:36:11.682Z,4.12
2017-03-30T07:37:10.605Z,4.28
2017-03-30T07:38:09.795Z,3.52
2017-03-30T07:39:08.653Z,4.63
2017-03-30T07:40:08.155Z,4.40
2017-03-30T07:41:07.025Z,3.68
2017-03-30T07:42:05.853Z,4.33
2017-03-30T07:43:04.688Z,4.53
2017-03-30T07:46:50.025Z,3.56
2017-03-30T07:47:48.869Z,5.12
2017-03-30T07:48:47.717Z,3.82
2017-03-30T07:49:46.148Z,4.97
2017-03-30T07:50:45.065Z,4.07
2017-03-30T07:51:44.255Z,5.25
2017-03-30T07:52:43.513Z,4.83
2017-03-30T07:53:42.272Z,4.63
2017-03-30T07:54:41.083Z,4.48
2017-03-30T07:55:40.301Z,5.22
2017-03-30T07:56:39.101Z,4.38
2017-03-30T07:57:37.964Z,5.08
2017-03-30T07:58:37.099Z,4.15
2017-03-30T07:59:35.894Z,4.68
2017-03-30T08:00:34.773Z,4.63
2017-03-30T08:01:33.620Z,4.20
2017-03-30T08:02:32.428Z,4.75
2017-03-30T08:03:31.300Z,5.02
2017-03-30T08:04:30.908Z,5.32
2017-03-30T08:05:29.739Z,5.25
2017-03-30T08:06:28.765Z,5.08
2017-03-30T08:07:27.495Z,4.32
2017-03-30T08:08:26.277Z,4.90
2017-03-30T08:09:25.653Z,4.72
2017-03-30T08:10:24.984Z,4.33
2017-03-30T08:11:24.099Z,4.83
2017-03-30T08:12:23.259Z,5.28
2017-03-30T08:13:22.340Z,5.93
2017-03-30T08:14:21.556Z,7.45
2017-03-30T08:15:20.679Z,6.37
2017-03-30T08:16:20.128Z,5.95
2017-03-30T08:17:19.951Z,5.82
2017-03-30T08:18:19.214Z,6.03
2017-03-30T08:19:18.358Z,5.20
2017-03-30T08:20:17.560Z,6.57
2017-03-30T08:21:16.737Z,6.78
2017-03-30T08:22:16.192Z,4.53
2017-03-30T08:23:15.320Z,4.77
2017-03-30T08:24:14.441Z,6.07
2017-03-30T08:25:13.662Z,4.53
2017-03-30T08:26:12.413Z,5.72
2017-03-30T08:27:11.532Z,4.20
2017-03-30T08:28:10.850Z,4.67
2017-03-30T08:29:09.966Z,6.10
2017-03-30T08:30:09.092Z,6.00
2017-03-30T08:31:08.211Z,4.93
2017-03-30T08:32:07.281Z,5.88
2017-03-30T08:33:06.457Z,5.75
2017-03-30T08:34:05.792Z,5.70
2017-03-30T08:35:04.959Z,4.53
2017-03-30T08:36:04.184Z,5.33
2017-03-30T08:37:02.816Z,5.15
2017-03-30T08:38:01.969Z,5.75
2017-03-30T08:39:01.135Z,5.57
2017-03-30T08:40:00.923Z,6.02
2017-03-30T08:41:00.017Z,6.37
2017-03-30T08:41:59.147Z,4.78
2017-03-30T08:42:58.252Z,5.05
2017-03-30T08:43:56.990Z,7.25
2017-03-30T08:44:55.708Z,5.98
2017-03-30T08:45:55.149Z,5.60
2017-03-30T08:46:54.261Z,5.90
2017-03-30T08:47:53.491Z,6.35
2017-03-30T08:48:52.583Z,6.07
2017-03-30T08:49:51.859Z,5.58
2017-03-30T08:50:50.316Z,4.87
2017-03-30T08:51:49.425Z,6.15
2017-03-30T08:52:48.319Z,5.30
2017-03-30T08:53:47.495Z,5.97
2017-03-30T08:54:46.312Z,4.92
2017-03-30T08:55:45.513Z,5.95
2017-03-30T08:56:44.198Z,6.15
2017-03-30T08:57:43.440Z,5.95
2017-03-30T08:58:43.212Z,5.85
2017-03-30T08:59:41.867Z,5.77
2017-03-30T09:00:40.768Z,7.32
2017-03-30T09:01:39.922Z,6.85
2017-03-30T09:02:39.087Z,5.10
2017-03-30T09:03:38.585Z,5.50
2017-03-30T09:04:37.681Z,5.63
2017-03-30T09:05:36.759Z,5.47
2017-03-30T09:06:35.853Z,6.25
2017-03-30T09:07:34.964Z,7.37
2017-03-30T09:08:33.988Z,6.70
2017-03-30T09:09:33.139Z,5.42
2017-03-30T09:10:31.916Z,5.98
2017-03-30T09:11:30.798Z,4.95
2017-03-30T09:12:29.544Z,5.12
2017-03-30T09:13:28.313Z,5.55
2017-03-30T09:14:27.705Z,5.32
2017-03-30T09:15:27.020Z,5.25
2017-03-30T09:16:25.807Z,5.73
2017-03-30T09:17:25.178Z,5.45
2017-03-30T09:18:23.995Z,5.70
2017-03-30T09:19:22.877Z,5.58
2017-03-30T09:20:21.719Z,5.53
2017-03-30T09:21:20.868Z,5.40
2017-03-30T09:22:19.674Z,5.92
2017-03-30T09:23:18.505Z,5.78
2017-03-30T09:24:17.681Z,5.52
2017-03-30T09:25:16.496Z,6.18
2017-03-30T09:26:15.675Z,5.55
2017-03-30T09:27:14.427Z,6.35
2017-03-30T09:28:13.659Z,5.42
2017-03-30T09:29:12.873Z,5.70
2017-03-30T09:30:11.764Z,6.05
2017-03-30T09:31:10.512Z,5.60
2017-03-30T09:32:09.696Z,5.72
2017-03-30T09:33:08.724Z,5.25
2017-03-30T09:34:08.218Z,5.70
2017-03-30T09:35:07.427Z,5.10
2017-03-30T09:36:06.152Z,6.03
2017-03-30T09:37:05.943Z,5.35
2017-03-30T09:38:04.721Z,5.37
2017-03-30T09:39:04.242Z,6.15
2017-03-30T09:40:02.716Z,4.92
2017-03-30T09:41:01.520Z,5.93
2017-03-30T09:42:00.228Z,5.62
2017-03-30T09:42:59.288Z,5.45
2017-03-30T09:43:58.351Z,5.77
2017-03-30T09:44:59.259Z,5.38
2017-03-30T09:45:58.498Z,5.65
2017-03-30T09:46:57.334Z,8.33
2017-03-30T09:47:56.128Z,6.08
2017-03-30T09:48:54.910Z,5.15
2017-03-30T09:49:53.771Z,9.03
2017-03-30T09:50:55.615Z,7.12
2017-03-30T09:51:54.364Z,4.80
2017-03-30T09:52:53.154Z,5.30
2017-03-30T09:53:52.420Z,5.35
2017-03-30T09:54:51.172Z,4.83
2017-03-30T09:55:49.931Z,6.43
2017-03-30T09:56:49.104Z,6.23
2017-03-30T09:57:47.899Z,6.13
2017-03-30T09:58:46.858Z,5.35
2017-03-30T09:59:46.131Z,4.80
2017-03-30T10:00:45.381Z,5.13
2017-03-30T10:01:44.402Z,4.43
2017-03-30T10:02:43.611Z,7.85
2017-03-30T10:03:42.369Z,5.52
2017-03-30T10:04:41.171Z,4.97
2017-03-30T10:05:39.926Z,5.02
2017-03-30T10:06:39.095Z,4.33
2017-03-30T10:07:38.038Z,5.05
2017-03-30T10:08:37.233Z,4.55
2017-03-30T10:09:36.503Z,5.35
2017-03-30T10:10:35.484Z,5.45
2017-03-30T10:11:34.228Z,4.48
2017-03-30T10:12:34.890Z,4.50
2017-03-30T10:13:35.104Z,4.38
2017-03-30T10:14:34.500Z,4.07
2017-03-30T10:15:33.534Z,6.23
2017-03-30T10:16:32.176Z,4.32
2017-03-30T10:17:30.971Z,4.70
2017-03-30T10:18:29.580Z,4.22
2017-03-30T10:19:28.687Z,5.38
2017-03-30T10:20:28.055Z,4.55
2017-03-30T10:21:27.074Z,4.65
2017-03-30T10:22:26.052Z,3.88
2017-03-30T10:23:25.193Z,4.40
2017-03-30T10:24:25.451Z,3.52
2017-03-30T10:25:25.021Z,3.95
2017-03-30T10:26:24.312Z,4.10
2017-03-30T10:27:23.210Z,10.58
2017-03-30T10:28:22.092Z,10.77
2017-03-30T10:29:20.917Z,5.60
2017-03-30T10:30:19.739Z,4.00
2017-03-30T10:31:19.258Z,4.15
2017-03-30T10:32:18.224Z,4.02
2017-03-30T10:33:16.775Z,3.92
2017-03-30T10:34:15.581Z,4.15
2017-03-30T10:35:14.403Z,5.82
2017-03-30T10:36:12.845Z,4.60
2017-03-30T10:37:11.697Z,3.97
2017-03-30T10:38:11.282Z,4.88
2017-03-30T10:39:09.706Z,4.67
2017-03-30T10:40:08.136Z,4.27
2017-03-30T10:41:06.959Z,5.05
2017-03-30T10:42:05.755Z,3.97
2017-03-30T10:43:04.690Z,5.62
2017-03-30T10:44:03.848Z,4.68
2017-03-30T10:45:02.639Z,4.83
2017-03-30T10:46:01.243Z,5.47
2017-03-30T10:47:00.011Z,4.77
2017-03-30T10:47:58.819Z,4.23
2017-03-30T10:48:57.672Z,4.33
2017-03-30T10:49:56.391Z,4.27
2017-03-30T10:50:54.839Z,4.75
2017-03-30T10:51:53.629Z,4.52
2017-03-30T10:52:52.400Z,4.58
2017-03-30T10:53:51.274Z,5.12
2017-03-30T10:54:50.128Z,4.43
2017-03-30T10:55:49.264Z,5.20
2017-03-30T10:56:48.253Z,5.82
2017-03-30T10:57:47.981Z,4.48
2017-03-30T10:58:47.191Z,4.82
2017-03-30T10:59:45.832Z,4.25
2017-03-30T11:00:44.894Z,4.83
2017-03-30T11:01:44.795Z,6.62
2017-03-30T11:02:43.875Z,5.37
2017-03-30T11:03:42.778Z,6.47
2017-03-30T11:04:41.564Z,5.98
2017-03-30T11:05:40.691Z,8.90
2017-03-30T11:06:39.076Z,6.42
2017-03-30T11:07:38.284Z,6.10
2017-03-30T11:08:37.259Z,6.23
2017-03-30T11:09:35.766Z,6.07
2017-03-30T11:10:34.627Z,5.30
2017-03-30T11:11:33.423Z,5.13
2017-03-30T11:12:32.255Z,5.80
2017-03-30T11:13:31.592Z,5.57
2017-03-30T11:14:30.835Z,4.83
2017-03-30T11:15:29.972Z,5.65
2017-03-30T11:16:29.031Z,5.92
2017-03-30T11:17:28.077Z,5.93
2017-03-30T11:18:27.109Z,5.68
2017-03-30T11:19:26.475Z,5.45
2017-03-30T11:20:25.421Z,4.60
2017-03-30T11:21:24.558Z,4.83
2017-03-30T11:22:23.844Z,4.65
2017-03-30T11:23:22.989Z,3.85
2017-03-30T11:24:21.931Z,4.52
2017-03-30T11:25:21.079Z,5.20
2017-03-30T11:26:19.871Z,4.77
2017-03-30T11:27:18.875Z,4.85
2017-03-30T11:28:18.236Z,4.58
2017-03-30T11:29:17.260Z,3.80
2017-03-30T11:30:15.862Z,4.65
2017-03-30T11:31:15.165Z,5.10
2017-03-30T11:32:14.168Z,4.53
2017-03-30T11:33:13.377Z,5.20
2017-03-30T11:34:12.263Z,4.32
2017-03-30T11:35:11.318Z,7.08
2017-03-30T11:36:10.212Z,5.68
2017-03-30T11:37:09.582Z,5.72
2017-03-30T11:38:08.947Z,4.28
2017-03-30T11:39:07.961Z,4.28
2017-03-30T11:40:08.125Z,3.42
2017-03-30T11:41:07.160Z,3.97
2017-03-30T11:42:06.197Z,4.00
2017-03-30T11:43:05.772Z,5.07
2017-03-30T11:44:04.792Z,4.33
2017-03-30T11:45:03.819Z,4.37
2017-03-30T11:46:02.871Z,4.60
2017-03-30T11:47:02.093Z,3.98
2017-03-30T11:48:01.201Z,4.40
2017-03-30T11:49:00.363Z,4.77
2017-03-30T11:49:59.271Z,4.52
2017-03-30T11:50:58.056Z,3.75
2017-03-30T11:51:57.026Z,4.53
2017-03-30T11:52:57.893Z,3.92
2017-03-30T11:53:56.782Z,4.30
2017-03-30T11:54:56.300Z,3.60
2017-03-30T11:55:55.241Z,3.68
2017-03-30T11:56:54.289Z,3.97
2017-03-30T11:57:53.411Z,6.25
2017-03-30T11:58:52.725Z,4.58
2017-03-30T11:59:52.019Z,4.70
2017-03-30T12:00:51.331Z,4.35
2017-03-30T12:01:50.416Z,2.98
2017-03-30T12:02:48.889Z,3.10
2017-03-30T12:03:48.327Z,3.65
2017-03-30T12:04:47.192Z,3.97
2017-03-30T12:05:46.229Z,3.50
2017-03-30T12:06:45.894Z,3.35
2017-03-30T12:08:53.650Z,4.10
2017-03-30T12:09:52.381Z,4.20
2017-03-30T12:10:52.204Z,4.03
2017-03-30T12:11:52.007Z,3.70
2017-03-30T12:12:51.176Z,3.53
2017-03-30T12:13:50.191Z,3.98
2017-03-30T12:14:49.520Z,3.73
2017-03-30T12:15:48.536Z,4.32
2017-03-30T12:16:47.591Z,3.72
2017-03-30T12:17:46.860Z,3.68
2017-03-30T12:18:46.057Z,3.63
2017-03-30T12:19:44.651Z,3.10
2017-03-30T12:20:43.697Z,2.90
2017-03-30T12:21:42.513Z,3.38
2017-03-30T12:22:41.688Z,3.42
2017-03-30T12:23:41.023Z,3.05
2017-03-30T12:24:39.908Z,2.93
2017-03-30T12:25:38.800Z,2.42
2017-03-30T12:26:37.862Z,2.65
2017-03-30T12:27:36.552Z,3.43
2017-03-30T12:28:35.133Z,3.03
2017-03-30T12:29:33.991Z,2.58
2017-03-30T12:30:33.061Z,2.40
2017-03-30T12:31:32.072Z,2.97
2017-03-30T12:32:31.146Z,3.35
2017-03-30T12:33:30.400Z,3.38
2017-03-30T12:34:29.440Z,2.63
2017-03-30T12:35:28.718Z,3.17
2017-03-30T12:36:27.326Z,2.60
2017-03-30T12:37:26.359Z,3.23
2017-03-30T12:38:28.139Z,3.07
2017-03-30T12:39:27.154Z,3.45
2017-03-30T12:40:26.251Z,4.47
2017-03-30T12:41:25.648Z,3.73
2017-03-30T12:42:24.880Z,4.15
2017-03-30T12:43:24.023Z,6.15
2017-03-30T12:44:23.031Z,4.65
2017-03-30T12:45:22.780Z,4.20
2017-03-30T12:46:21.977Z,3.73
2017-03-30T12:47:21.199Z,3.58
2017-03-30T12:48:20.820Z,3.93
2017-03-30T12:49:20.031Z,3.43
2017-03-30T12:50:19.063Z,4.12
2017-03-30T12:51:18.052Z,4.70
2017-03-30T12:52:16.693Z,3.30
2017-03-30T12:53:16.019Z,3.83
2017-03-30T12:54:15.059Z,2.92
2017-03-30T12:55:14.124Z,3.27
2017-03-30T12:56:13.791Z,3.42
2017-03-30T12:57:12.351Z,3.13
2017-03-30T12:58:11.026Z,3.83
2017-03-30T12:59:10.613Z,3.68
2017-03-30T13:00:09.720Z,3.50
2017-03-30T13:01:08.985Z,3.88
2017-03-30T13:02:07.996Z,3.95
2017-03-30T13:03:07.107Z,2.82
2017-03-30T13:04:06.155Z,3.32
2017-03-30T13:05:05.653Z,3.47
2017-03-30T13:06:04.747Z,3.53
2017-03-30T13:07:03.821Z,2.77
2017-03-30T13:08:02.616Z,3.40
2017-03-30T13:09:01.693Z,3.07
2017-03-30T13:10:00.780Z,2.88
2017-03-30T13:11:00.138Z,3.42
2017-03-30T13:11:59.573Z,3.23
2017-03-30T13:12:58.678Z,2.97
2017-03-30T13:13:57.829Z,2.52
2017-03-30T13:14:56.555Z,3.85
2017-03-30T13:15:55.605Z,2.82
2017-03-30T13:16:54.593Z,3.25
2017-03-30T13:17:53.379Z,3.08
2017-03-30T13:18:52.069Z,2.50
2017-03-30T13:19:50.704Z,2.78
2017-03-30T13:20:49.633Z,2.63
2017-03-30T13:21:48.734Z,2.92
2017-03-30T13:22:48.032Z,2.55
2017-03-30T13:23:47.229Z,3.10
2017-03-30T13:24:46.315Z,2.80
2017-03-30T13:25:45.413Z,2.48
2017-03-30T13:26:44.530Z,2.70
2017-03-30T13:27:43.986Z,3.12
2017-03-30T13:28:43.262Z,2.83
2017-03-30T13:29:42.260Z,2.50
2017-03-30T13:30:40.728Z,2.52
2017-03-30T13:31:39.223Z,2.10
2017-03-30T13:32:38.167Z,2.25
2017-03-30T13:33:37.040Z,2.08
2017-03-30T13:34:36.230Z,2.70
2017-03-30T13:35:35.014Z,2.67
2017-03-30T13:36:33.828Z,2.90
2017-03-30T13:37:32.653Z,2.45
2017-03-30T13:38:31.508Z,2.40
2017-03-30T13:39:30.419Z,2.50
2017-03-30T13:40:29.720Z,2.37
2017-03-30T13:41:28.621Z,2.60
2017-03-30T13:42:27.573Z,2.48
2017-03-30T13:43:26.601Z,2.90
2017-03-30T13:44:25.557Z,2.17
2017-03-30T13:45:24.468Z,1.87
2017-03-30T13:46:23.298Z,2.05
2017-03-30T13:47:22.886Z,2.27
2017-03-30T13:48:21.866Z,1.97
2017-03-30T13:49:20.804Z,2.73
2017-03-30T13:50:19.864Z,1.95
2017-03-30T13:51:18.793Z,2.20
2017-03-30T13:52:18.007Z,1.77
2017-03-30T13:53:17.042Z,2.07
2017-03-30T13:54:15.986Z,2.03
2017-03-30T13:55:14.961Z,2.00
2017-03-30T13:56:13.836Z,2.00
2017-03-30T13:57:12.816Z,2.33
2017-03-30T13:58:12.008Z,1.80
2017-03-30T13:59:10.918Z,2.30
2017-03-30T14:00:09.816Z,1.83
2017-03-30T14:01:08.721Z,2.48
2017-03-30T14:02:07.544Z,1.90
2017-03-30T14:03:06.384Z,2.25
2017-03-30T14:04:05.583Z,1.95
2017-03-30T14:05:04.427Z,1.90
2017-03-30T14:06:03.425Z,2.18
2017-03-30T14:07:02.318Z,2.00
2017-03-30T14:08:01.288Z,1.87
2017-03-30T14:09:00.169Z,2.17
2017-03-30T14:09:59.328Z,2.10
2017-03-30T14:10:58.255Z,1.67
2017-03-30T14:11:57.165Z,1.63
2017-03-30T14:12:56.015Z,1.37
2017-03-30T14:13:54.944Z,1.57
2017-03-30T14:14:53.418Z,2.20
2017-03-30T14:15:52.660Z,1.38
2017-03-30T14:16:51.567Z,1.50
2017-03-30T14:17:50.417Z,1.73
2017-03-30T14:18:49.567Z,1.93
2017-03-30T14:19:48.521Z,1.38
2017-03-30T14:20:47.373Z,1.47
2017-03-30T14:21:46.521Z,1.40
2017-03-30T14:22:45.367Z,1.70
2017-03-30T14:23:44.308Z,1.37
2017-03-30T14:24:43.243Z,1.30
2017-03-30T14:25:42.152Z,1.72
2017-03-30T14:26:41.132Z,2.27
2017-03-30T14:27:39.909Z,1.97
2017-03-30T14:28:38.795Z,1.30
2017-03-30T14:29:37.659Z,1.57
2017-03-30T14:30:36.680Z,1.45
2017-03-30T14:31:35.611Z,2.02
2017-03-30T14:32:34.607Z,1.28
2017-03-30T14:33:33.715Z,2.30
2017-03-30T14:34:32.661Z,1.10
2017-03-30T14:35:31.547Z,1.32
2017-03-30T14:36:30.452Z,1.07
2017-03-30T14:37:29.377Z,1.30
2017-03-30T14:38:28.247Z,1.53
2017-03-30T14:39:27.411Z,1.50
2017-03-30T14:40:26.276Z,1.42
2017-03-30T14:41:25.173Z,1.00
2017-03-30T14:42:24.088Z,1.38
2017-03-30T14:43:23.177Z,1.00
2017-03-30T14:44:22.035Z,1.43
2017-03-30T14:45:21.319Z,1.63
2017-03-30T14:46:19.980Z,1.57
2017-03-30T14:48:58.359Z,2.03
2017-03-30T14:51:39.833Z,1.87
2017-03-30T14:52:51.870Z,1.65
2017-03-30T14:54:11.787Z,1.77
2017-03-30T15:00:22.077Z,1.40
2017-03-30T15:01:27.410Z,1.13
2017-03-30T15:02:50.376Z,1.08
2017-03-30T15:04:07.949Z,1.07
2017-03-30T15:06:56.280Z,0.92
2017-03-30T15:09:31.879Z,0.72
2017-03-30T15:10:46.030Z,1.03
2017-03-30T15:11:58.903Z,1.33
2017-03-30T15:14:21.984Z,0.98
2017-03-30T15:15:39.382Z,0.78
2017-03-30T15:17:58.074Z,0.97
2017-03-30T15:19:02.859Z,1.10
2017-03-30T15:20:02.564Z,1.10
2017-03-30T15:23:37.878Z,1.23
2017-03-30T15:24:41.411Z,1.05
2017-03-30T15:25:42.503Z,1.00
2017-03-30T15:26:50.447Z,0.98
2017-03-30T15:27:54.735Z,0.88
2017-03-30T15:29:00.123Z,1.13
2017-03-30T15:30:15.318Z,1.03
2017-03-30T15:31:22.506Z,1.13
2017-03-30T15:32:34.104Z,1.52
2017-03-30T15:33:44.960Z,0.88
2017-03-30T15:34:50.047Z,0.87
2017-03-30T15:37:15.910Z,0.73
2017-03-30T15:38:26.868Z,1.10
2017-03-30T15:39:28.414Z,1.33
2017-03-30T15:40:31.500Z,1.02
2017-03-30T15:41:37.353Z,0.87
2017-03-30T15:42:55.237Z,1.15
2017-03-30T15:43:57.935Z,1.08
2017-03-30T15:45:11.156Z,1.33
2017-03-30T15:46:30.935Z,0.97
2017-03-30T15:47:45.608Z,1.03
2017-03-30T15:50:09.442Z,0.90
2017-03-30T15:51:13.727Z,1.10
2017-03-30T15:52:19.639Z,2.33
2017-03-30T15:53:21.256Z,1.13
2017-03-30T15:54:22.121Z,1.12
2017-03-30T15:55:31.281Z,1.40
2017-03-30T15:56:51.870Z,1.02
2017-03-30T15:58:17.916Z,0.93
2017-03-30T15:59:20.232Z,0.78
2017-03-30T16:00:19.818Z,1.07
2017-03-30T16:01:33.098Z,1.05
2017-03-30T16:03:52.231Z,1.00
2017-03-30T16:04:58.839Z,1.18
2017-03-30T16:07:27.951Z,1.25
2017-03-30T16:08:27.084Z,1.55
2017-03-30T16:09:25.545Z,1.22
2017-03-30T16:10:24.129Z,0.98
2017-03-30T16:11:22.584Z,1.18
2017-03-30T16:12:21.479Z,1.58
2017-03-30T16:13:20.287Z,1.12
2017-03-30T16:14:19.368Z,1.45
2017-03-30T16:15:17.864Z,1.17
2017-03-30T16:16:16.689Z,1.30
2017-03-30T16:17:23.637Z,1.10
2017-03-30T16:18:22.449Z,1.62
2017-03-30T16:19:21.564Z,1.08
2017-03-30T16:20:20.396Z,1.48
2017-03-30T16:21:19.175Z,1.60
2017-03-30T16:22:17.616Z,1.45
2017-03-30T16:23:16.045Z,1.10
2017-03-30T16:24:14.821Z,1.20
2017-03-30T16:25:13.652Z,1.55
2017-03-30T16:26:12.107Z,1.50
2017-03-30T16:27:13.825Z,1.22
2017-03-30T16:28:12.620Z,1.37
2017-03-30T16:29:11.439Z,1.97
2017-03-30T16:30:09.841Z,1.70
2017-03-30T16:31:08.956Z,1.40
2017-03-30T16:32:07.756Z,1.20
2017-03-30T16:33:06.587Z,1.55
2017-03-30T16:34:05.376Z,1.27
2017-03-30T16:35:04.223Z,1.03
2017-03-30T16:36:02.984Z,1.13
2017-03-30T16:37:01.729Z,1.37
2017-03-30T16:38:00.537Z,1.43
2017-03-30T16:38:59.001Z,1.12
2017-03-30T16:39:58.211Z,1.27
2017-03-30T16:40:56.991Z,1.03
2017-03-30T16:41:55.824Z,1.30
2017-03-30T16:42:54.610Z,1.10
2017-03-30T16:43:53.436Z,1.52
2017-03-30T16:44:52.216Z,1.22
2017-03-30T16:45:51.055Z,1.25
2017-03-30T16:46:49.887Z,1.37
2017-03-30T16:47:48.669Z,1.45
2017-03-30T16:48:47.733Z,1.12
2017-03-30T16:49:46.110Z,1.27
2017-03-30T16:50:44.923Z,1.38
2017-03-30T16:51:43.736Z,2.23
2017-03-30T16:52:42.592Z,1.30
2017-03-30T16:53:41.493Z,1.32
2017-03-30T16:54:40.651Z,1.75
2017-03-30T16:55:39.716Z,1.38
2017-03-30T16:56:38.656Z,1.75
2017-03-30T16:57:37.639Z,1.30
2017-03-30T16:58:36.504Z,1.12
2017-03-30T16:59:35.384Z,1.27
2017-03-30T17:00:34.745Z,1.23
2017-03-30T17:01:33.204Z,1.45
2017-03-30T17:02:32.477Z,1.08
2017-03-30T17:03:31.490Z,1.70
2017-03-30T17:04:30.447Z,1.65
2017-03-30T17:05:29.624Z,1.85
2017-03-30T17:06:28.860Z,1.40
2017-03-30T17:07:27.873Z,2.23
2017-03-30T17:08:26.988Z,2.20
2017-03-30T17:09:25.963Z,2.08
2017-03-30T17:10:25.391Z,1.50
2017-03-30T17:11:24.412Z,1.67
2017-03-30T17:12:23.870Z,1.85
2017-03-30T17:13:22.811Z,1.48
2017-03-30T17:14:21.359Z,1.30
2017-03-30T17:15:20.294Z,1.42
2017-03-30T17:16:19.412Z,1.40
2017-03-30T17:17:18.585Z,1.20
2017-03-30T17:18:18.342Z,1.30
2017-03-30T17:19:17.516Z,1.28
2017-03-30T17:20:16.641Z,1.53
2017-03-30T17:21:15.831Z,1.60
2017-03-30T17:22:14.826Z,1.47
2017-03-30T17:23:14.309Z,2.03
2017-03-30T17:24:13.260Z,1.53
2017-03-30T17:25:12.361Z,1.52
2017-03-30T17:26:11.420Z,1.57
2017-03-30T17:27:10.604Z,1.65
2017-03-30T17:28:09.688Z,1.53
2017-03-30T17:29:08.825Z,1.08
2017-03-30T17:30:08.101Z,1.53
2017-03-30T17:31:07.217Z,1.12
2017-03-30T17:32:06.350Z,1.32
2017-03-30T17:33:04.955Z,1.97
2017-03-30T17:34:04.036Z,1.72
2017-03-30T17:35:03.130Z,1.57
2017-03-30T17:36:02.516Z,1.87
2017-03-30T17:37:01.709Z,1.70
2017-03-30T17:38:00.401Z,1.77
2017-03-30T17:38:59.417Z,1.47
2017-03-30T17:39:58.552Z,1.35
2017-03-30T17:40:58.269Z,2.02
2017-03-30T17:41:57.224Z,1.48
2017-03-30T17:42:56.649Z,1.72
2017-03-30T17:43:55.709Z,1.37
2017-03-30T17:44:54.425Z,1.63
2017-03-30T17:45:53.633Z,1.42
2017-03-30T17:46:52.800Z,1.48
2017-03-30T17:47:52.144Z,1.80
2017-03-30T17:48:50.851Z,2.05
2017-03-30T17:49:49.297Z,2.03
2017-03-30T17:50:48.631Z,1.85
2017-03-30T17:51:47.730Z,2.18
2017-03-30T17:52:46.770Z,1.78
2017-03-30T17:53:46.253Z,1.63
2017-03-30T17:54:45.485Z,2.27
2017-03-30T17:55:44.714Z,2.03
2017-03-30T17:56:45.289Z,1.93
2017-03-30T17:57:44.424Z,1.68
2017-03-30T17:58:45.023Z,2.80
2017-03-30T17:59:44.565Z,2.88
2017-03-30T18:00:43.712Z,3.02
2017-03-30T18:01:42.794Z,3.33
2017-03-30T18:02:41.884Z,3.15
2017-03-30T18:03:40.989Z,3.02
2017-03-30T18:04:39.674Z,2.72
2017-03-30T18:05:39.039Z,2.58
2017-03-30T18:06:38.233Z,2.60
2017-03-30T18:07:37.718Z,2.65
2017-03-30T18:08:36.836Z,2.18
2017-03-30T18:09:35.904Z,2.13
2017-03-30T18:10:34.995Z,2.23
2017-03-30T18:11:34.336Z,1.75
2017-03-30T18:12:33.482Z,1.97
2017-03-30T18:13:33.080Z,1.80
2017-03-30T18:14:32.184Z,1.87
2017-03-30T18:15:31.260Z,1.63
2017-03-30T18:16:30.378Z,1.58
2017-03-30T18:17:29.309Z,1.50